Time;durP1;ratioP1;P1;durP2;ratioP2;P2;SDS_P1;SDS_P2;PMS_P1;PMS_P2;Temp;Humidity;BMP_temperature;BMP_pressure;BME280_temperature;BME280_humidity;BME280_pressure;Samples;Min_cycle;Max_cycle;Signal;HPM_P1;HPM_P2
2022/10/11 00:00:31;;;;;;;5.78;4.15;;;;;;;18.50;62.21;97139.75;10561265;28;20549;-31
2022/10/11 00:05:32;;;;;;;6.85;4.80;;;;;;;18.49;61.84;97133.00;10562876;28;20035;-30
2022/10/11 00:10:33;;;;;;;6.88;4.53;;;;;;;18.48;61.95;97141.41;10540021;28;20028;-31
2022/10/11 00:15:34;;;;;;;6.45;4.40;;;;;;;18.47;61.85;97139.72;10559164;28;20028;-31
2022/10/11 00:20:34;;;;;;;7.80;4.63;;;;;;;18.49;61.98;97155.81;10558968;28;20024;-31
2022/10/11 00:25:34;;;;;;;6.50;4.57;;;;;;;18.54;65.35;97157.53;10563415;28;20054;-31
2022/10/11 00:30:35;;;;;;;5.57;4.45;;;;;;;18.58;65.08;97158.41;10559615;28;20028;-31
2022/10/11 00:35:40;;;;;;;5.20;3.75;;;;;;;18.51;63.91;97161.72;10558846;28;20031;-31
2022/10/11 00:40:40;;;;;;;5.55;4.22;;;;;;;18.54;63.72;97166.81;10539023;28;20059;-32
2022/10/11 00:45:56;;;;;;;5.05;3.75;;;;;;;18.53;63.68;97165.13;10541774;28;20055;-31
2022/10/11 00:51:00;;;;;;;5.07;3.55;;;;;;;18.52;62.47;97160.88;10554033;28;20468;-31
2022/10/11 00:56:13;;;;;;;5.75;3.85;;;;;;;18.50;63.20;97160.03;10563904;28;20039;-31
2022/10/11 01:01:13;;;;;;;5.47;3.47;;;;;;;18.48;61.97;97161.69;10570359;28;20039;-31
2022/10/11 01:06:14;;;;;;;5.03;4.07;;;;;;;18.44;61.81;97159.97;10564268;28;20031;-30
2022/10/11 01:11:18;;;;;;;5.95;3.83;;;;;;;18.48;61.93;97169.28;10563670;28;20031;-31
2022/10/11 01:16:57;;;;;;;5.28;4.68;;;;;;;18.43;61.89;97156.59;10566915;28;20034;-31
2022/10/11 01:22:34;;;;;;;5.15;3.58;;;;;;;18.48;61.87;97166.75;10570820;28;20501;-31
2022/10/11 01:27:51;;;;;;;5.47;3.92;;;;;;;18.51;64.21;97159.19;10567481;28;20478;-31
2022/10/11 01:33:17;;;;;;;4.97;3.73;;;;;;;18.55;65.11;97168.50;10565167;28;20038;-31
2022/10/11 01:38:33;;;;;;;6.40;3.63;;;;;;;18.54;64.26;97161.75;10544604;28;20125;-31
2022/10/11 01:43:34;;;;;;;4.78;3.78;;;;;;;18.51;63.63;97152.41;10563184;28;20526;-30
2022/10/11 01:48:56;;;;;;;4.68;3.47;;;;;;;18.50;63.18;97144.81;10563714;28;20401;-32
2022/10/11 01:54:27;;;;;;;6.22;4.00;;;;;;;18.50;63.30;97145.66;10553136;28;20024;-32
2022/10/11 01:59:30;;;;;;;4.68;3.78;;;;;;;18.49;62.25;97143.13;10566008;28;20036;-30
2022/10/11 02:04:56;;;;;;;4.82;3.42;;;;;;;18.49;62.65;97135.53;10562697;28;20405;-31
2022/10/11 02:10:14;;;;;;;4.55;3.90;;;;;;;18.49;62.47;97140.59;10560816;28;20160;-32
2022/10/11 02:15:17;;;;;;;5.50;3.58;;;;;;;18.47;61.94;97140.56;10558314;28;20031;-31
2022/10/11 02:20:23;;;;;;;4.47;3.72;;;;;;;18.47;62.40;97120.28;10570571;28;20412;-31
2022/10/11 02:25:26;;;;;;;4.32;2.95;;;;;;;18.48;62.05;97133.78;10566862;28;20515;-30
2022/10/11 02:30:28;;;;;;;4.10;3.25;;;;;;;18.48;61.87;97131.25;10560525;28;20031;-30
2022/10/11 02:35:33;;;;;;;6.55;3.55;;;;;;;18.54;64.74;97133.84;10560705;28;20509;-31
2022/10/11 02:40:41;;;;;;;4.10;3.53;;;;;;;18.57;64.85;97132.19;10543453;28;20408;-30
2022/10/11 02:45:58;;;;;;;4.13;3.53;;;;;;;18.52;63.47;97138.06;10544405;28;20043;-31
2022/10/11 02:50:59;;;;;;;4.78;3.55;;;;;;;18.46;63.42;97123.66;10557887;28;20391;-30
2022/10/11 02:55:59;;;;;;;4.28;3.15;;;;;;;18.50;63.30;97139.75;10560318;28;20024;-31
2022/10/11 03:01:00;;;;;;;4.35;3.40;;;;;;;18.50;62.77;97139.75;10565169;28;20081;-31
2022/10/11 03:06:03;;;;;;;5.25;3.28;;;;;;;18.48;61.76;97144.81;10561868;28;20275;-31
2022/10/11 03:11:03;;;;;;;4.38;3.38;;;;;;;18.49;62.97;97127.91;10556735;28;20493;-31
2022/10/11 03:16:04;;;;;;;5.03;3.40;;;;;;;18.48;61.97;97131.25;10562585;28;20028;-31
2022/10/11 03:21:04;;;;;;;4.50;3.88;;;;;;;18.48;62.31;97126.19;10566602;28;20039;-31
2022/10/11 03:26:05;;;;;;;4.43;3.35;;;;;;;18.48;61.99;97128.72;10563467;28;20027;-32
2022/10/11 03:31:05;;;;;;;5.15;3.45;;;;;;;18.48;62.06;97133.78;10541262;28;20500;-31
2022/10/11 03:36:06;;;;;;;3.70;3.08;;;;;;;18.48;62.52;97136.34;10559616;28;20111;-30
2022/10/11 03:41:06;;;;;;;4.13;2.95;;;;;;;18.54;64.50;97136.38;10561425;28;20028;-31
2022/10/11 03:46:07;;;;;;;4.50;3.42;;;;;;;18.56;64.62;97137.22;10562093;28;20035;-31
2022/10/11 03:51:07;;;;;;;4.32;3.15;;;;;;;18.51;63.53;97136.38;10557911;28;20024;-33
2022/10/11 03:56:08;;;;;;;4.03;3.03;;;;;;;18.52;63.60;97138.06;10561024;28;20031;-31
2022/10/11 04:01:09;;;;;;;4.47;3.15;;;;;;;18.51;62.96;97154.13;10563069;28;20039;-31
2022/10/11 04:06:09;;;;;;;3.88;2.75;;;;;;;18.49;63.21;97140.59;10560819;28;20024;-32
2022/10/11 04:11:09;;;;;;;5.07;3.08;;;;;;;18.49;62.95;97143.13;10539657;28;20030;-30
2022/10/11 04:16:10;;;;;;;3.35;2.92;;;;;;;18.49;62.74;97138.06;10559826;28;20544;-32
2022/10/11 04:21:10;;;;;;;4.80;3.00;;;;;;;18.48;62.85;97142.25;10566385;28;20038;-31
2022/10/11 04:26:11;;;;;;;4.93;2.85;;;;;;;18.47;62.19;97149.84;10543388;28;20032;-31
2022/10/11 04:31:11;;;;;;;5.70;3.07;;;;;;;18.37;62.95;97137.97;10567292;28;20432;-31
2022/10/11 04:36:12;;;;;;;5.68;3.10;;;;;;;18.48;63.84;97156.63;10566515;28;20330;-32
2022/10/11 04:41:14;;;;;;;5.00;2.88;;;;;;;18.45;62.08;97156.59;10569691;28;20486;-31
2022/10/11 04:46:14;;;;;;;8.07;2.88;;;;;;;18.36;63.41;97164.16;10573584;28;20055;-31
2022/10/11 04:51:15;;;;;;;3.75;2.75;;;;;;;18.30;63.38;97166.63;10564337;28;20551;-31
2022/10/11 04:56:17;;;;;;;5.55;2.55;;;;;;;18.25;63.27;97163.19;10566481;28;20024;-31
2022/10/11 05:01:17;;;;;;;6.10;2.42;;;;;;;18.16;63.32;97168.19;10565543;28;20027;-31
2022/10/11 05:06:18;;;;;;;10.70;2.80;;;;;;;18.27;63.82;97179.25;10567296;28;20042;-31
2022/10/11 05:11:19;;;;;;;6.53;3.25;;;;;;;18.34;62.74;97175.97;10557124;28;20031;-31
2022/10/11 05:16:19;;;;;;;7.85;2.88;;;;;;;18.40;62.22;97178.56;10568628;28;20051;-31
2022/10/11 05:21:25;;;;;;;12.25;3.20;;;;;;;18.38;62.46;97176.00;10546501;28;20110;-31
2022/10/11 05:26:26;;;;;;;6.67;2.50;;;;;;;18.31;62.22;97168.31;10554710;28;20039;-32
2022/10/11 05:31:27;;;;;;;9.05;3.22;;;;;;;18.39;61.85;97179.38;10564044;28;20451;-32
2022/10/11 05:36:27;;;;;;;7.40;3.58;;;;;;;18.43;62.39;97188.72;10562621;28;20154;-31
2022/10/11 05:41:28;;;;;;;7.95;2.80;;;;;;;18.38;62.21;97190.34;10566660;28;20035;-30
2022/10/11 05:46:28;;;;;;;15.10;3.72;;;;;;;18.37;63.59;97183.59;10564605;28;20027;-31
2022/10/11 05:51:29;;;;;;;21.88;3.67;;;;;;;18.45;64.59;97192.09;10560905;28;20032;-31
2022/10/11 05:56:29;;;;;;;11.87;3.63;;;;;;;18.51;64.76;97208.19;10540141;28;20020;-31
2022/10/11 06:01:30;;;;;;;7.30;3.40;;;;;;;18.48;63.33;97208.19;10567540;28;20775;-30
2022/10/11 06:06:30;;;;;;;8.30;3.10;;;;;;;18.48;63.35;97214.94;10560884;28;20389;-31
2022/10/11 06:11:30;;;;;;;9.55;3.63;;;;;;;18.46;63.45;97216.63;10557875;28;20028;-31
2022/10/11 06:16:31;;;;;;;9.90;2.90;;;;;;;18.46;63.02;97219.16;10564186;28;20045;-31
2022/10/11 06:21:31;;;;;;;6.50;3.75;;;;;;;18.46;62.37;97224.22;10549912;28;20046;-31
2022/10/11 06:26:32;;;;;;;7.53;3.22;;;;;;;18.43;62.12;97225.03;10566878;28;20032;-31
2022/10/11 06:31:32;;;;;;;8.43;3.30;;;;;;;18.45;61.86;97240.28;10562912;28;20028;-31
2022/10/11 06:36:33;;;;;;;4.93;2.92;;;;;;;18.40;62.03;97232.63;10564591;28;20020;-31
2022/10/11 06:41:33;;;;;;;4.30;2.88;;;;;;;18.44;61.89;97247.06;10562208;28;20077;-31
2022/10/11 06:46:34;;;;;;;5.90;2.90;;;;;;;18.44;62.05;97248.72;10566828;28;20023;-31
2022/10/11 06:51:34;;;;;;;7.53;3.43;;;;;;;18.47;64.64;97248.72;10560890;28;20558;-32
2022/10/11 06:56:35;;;;;;;5.45;2.80;;;;;;;18.51;64.53;97253.00;10562678;28;20774;-31
2022/10/11 07:01:35;;;;;;;5.38;3.20;;;;;;;18.54;64.71;97258.97;10548695;28;20031;-31
2022/10/11 07:06:38;;;;;;;5.97;2.53;;;;;;;18.49;63.15;97250.44;10560059;28;20028;-31
2022/10/11 07:11:39;;;;;;;5.32;3.05;;;;;;;18.48;63.33;97255.50;10561128;28;20281;-30
2022/10/11 07:16:39;;;;;;;4.78;2.42;;;;;;;18.47;63.50;97258.88;10529542;28;20028;-32
2022/10/11 07:21:39;;;;;;;3.72;2.38;;;;;;;18.41;63.06;97246.16;10542406;28;20023;-32
2022/10/11 07:26:41;;;;;;;5.47;2.35;;;;;;;18.45;62.69;97258.88;10560965;28;20024;-32
2022/10/11 07:31:42;;;;;;;5.05;2.50;;;;;;;18.46;62.79;97254.66;10561521;28;20089;-32
2022/10/11 07:36:42;;;;;;;4.75;3.45;;;;;;;18.46;61.72;97254.66;10549066;28;20035;-31
2022/10/11 07:41:42;;;;;;;5.20;2.80;;;;;;;18.43;61.86;97252.09;10564532;28;20028;-31
2022/10/11 07:46:43;;;;;;;6.70;2.88;;;;;;;18.45;62.04;97252.94;10546891;28;20338;-32
2022/10/11 07:51:43;;;;;;;3.70;2.00;;;;;;;18.45;61.95;97251.28;10556886;28;20062;-31
2022/10/11 07:56:44;;;;;;;4.07;2.72;;;;;;;18.45;64.28;97258.03;10550429;28;20027;-33
2022/10/11 08:01:45;;;;;;;5.43;2.50;;;;;;;18.51;64.71;97258.91;10563572;28;20466;-31
2022/10/11 08:06:45;;;;;;;3.95;2.22;;;;;;;18.50;63.98;97251.31;10564096;28;20030;-31
2022/10/11 08:11:46;;;;;;;4.20;2.70;;;;;;;18.49;63.28;97262.28;10573671;28;20054;-31
2022/10/11 08:16:47;;;;;;;4.45;2.88;;;;;;;18.48;63.27;97268.19;10567871;28;20281;-32
2022/10/11 08:21:47;;;;;;;3.35;2.30;;;;;;;18.48;62.73;97270.72;10567839;28;20032;-31
2022/10/11 08:26:48;;;;;;;3.53;2.50;;;;;;;18.46;62.85;97275.78;10572120;28;20181;-30
2022/10/11 08:31:48;;;;;;;3.00;2.33;;;;;;;18.47;62.51;97281.69;10568336;28;20035;-32
2022/10/11 08:36:49;;;;;;;3.88;2.58;;;;;;;18.45;62.60;97273.22;10565505;28;20104;-31
2022/10/11 08:41:56;;;;;;;5.82;2.35;;;;;;;18.46;61.77;97272.38;10571432;28;20024;-30
2022/10/11 08:47:37;;;;;;;3.80;2.75;;;;;;;18.45;61.77;97274.09;10572724;28;20076;-32
2022/10/11 08:52:47;;;;;;;2.58;2.38;;;;;;;18.44;61.96;97276.59;10346755;28;20045;-28
2022/10/11 08:57:52;;;;;;;3.42;2.08;;;;;;;18.44;61.82;97269.00;10500001;28;20560;-29
2022/10/11 09:03:19;;;;;;;3.45;2.33;;;;;;;18.51;64.33;97273.28;10570200;28;20032;-28
2022/10/11 09:08:30;;;;;;;2.70;2.03;;;;;;;18.53;64.29;97276.69;10538417;28;20532;-28
2022/10/11 09:14:03;;;;;;;3.42;2.65;;;;;;;18.51;63.23;97283.44;10569825;28;20024;-28
2022/10/11 09:19:27;;;;;;;3.40;2.00;;;;;;;18.48;62.81;97275.78;10565311;28;20027;-28
2022/10/11 09:24:33;;;;;;;2.78;2.13;;;;;;;18.47;62.14;97279.16;10563284;28;20032;-28
2022/10/11 09:29:55;;;;;;;5.05;2.08;;;;;;;18.48;62.86;97283.38;10565780;28;20032;-29
2022/10/11 09:35:09;;;;;;;3.00;2.42;;;;;;;18.48;63.06;97278.31;10559348;28;20032;-28
2022/10/11 09:40:18;;;;;;;2.83;2.28;;;;;;;18.47;62.59;97276.63;10567179;28;20034;-29
2022/10/11 09:45:21;;;;;;;2.38;1.85;;;;;;;18.46;62.00;97285.06;10566389;28;20042;-26
2022/10/11 09:50:28;;;;;;;3.88;2.28;;;;;;;18.46;62.29;97290.13;10537219;28;20508;-28
2022/10/11 09:55:30;;;;;;;3.45;2.35;;;;;;;18.45;61.84;97290.97;10565619;28;20032;-28
2022/10/11 10:00:32;;;;;;;2.90;2.22;;;;;;;18.45;62.10;97294.38;10567407;28;20123;-29
2022/10/11 10:05:35;;;;;;;3.25;2.30;;;;;;;18.51;63.88;97298.66;10544456;28;20032;-28
2022/10/11 10:10:40;;;;;;;3.22;2.55;;;;;;;18.56;64.14;97302.06;10563067;28;20059;-29
2022/10/11 10:15:49;;;;;;;1.98;1.77;;;;;;;18.56;64.07;97302.06;10563419;28;20031;-29
2022/10/11 10:20:56;;;;;;;2.72;2.47;;;;;;;18.51;63.17;97298.66;10544929;28;20024;-28
2022/10/11 10:26:18;;;;;;;2.83;2.28;;;;;;;18.48;62.23;97303.66;10535500;28;20077;-28
2022/10/11 10:31:22;;;;;;;3.47;3.00;;;;;;;18.47;62.67;97299.44;10564080;28;20302;-29
2022/10/11 10:36:28;;;;;;;3.00;1.85;;;;;;;18.48;63.25;97298.59;10560118;28;20026;-28
2022/10/11 10:41:28;;;;;;;4.47;2.20;;;;;;;18.48;62.96;97298.59;10545604;28;20452;-28
2022/10/11 10:46:40;;;;;;;3.15;2.70;;;;;;;18.48;63.29;97303.66;10560904;28;20085;-29
2022/10/11 10:52:04;;;;;;;4.15;2.40;;;;;;;18.48;63.20;97303.66;10561426;28;20035;-28
2022/10/11 10:57:19;;;;;;;2.38;1.90;;;;;;;18.45;62.04;97306.19;10552854;28;20038;-30
2022/10/11 11:02:33;;;;;;;3.22;2.08;;;;;;;18.46;62.44;97300.28;10566924;28;20032;-28
2022/10/11 11:07:49;;;;;;;2.50;1.98;;;;;;;18.44;62.01;97299.44;10536382;28;20401;-28
2022/10/11 11:12:52;;;;;;;3.00;2.10;;;;;;;18.53;64.21;97296.97;10558568;28;20027;-28
2022/10/11 11:18:04;;;;;;;6.18;2.65;;;;;;;18.58;64.50;97292.81;10555699;28;20024;-28
2022/10/11 11:23:35;;;;;;;1.65;1.55;;;;;;;18.56;62.37;97284.31;10539586;28;20111;-27
2022/10/11 11:28:57;;;;;;;2.33;1.73;;;;;;;18.55;61.55;97287.69;10562715;28;20040;-28
2022/10/11 11:34:23;;;;;;;2.35;1.92;;;;;;;18.51;61.35;97283.44;10558658;28;20035;-28
2022/10/11 11:39:30;;;;;;;2.20;1.60;;;;;;;18.46;61.40;97269.84;10561794;28;20527;-28
2022/10/11 11:44:31;;;;;;;;;;;;;;;18.53;61.44;97271.63;10560632;28;20032;-29
2022/10/11 11:49:45;;;;;;;3.85;1.60;;;;;;;18.51;62.02;97273.28;10558752;28;19912;-28
2022/10/11 11:54:53;;;;;;;2.70;1.65;;;;;;;18.52;61.66;97272.47;10553698;28;20490;-30
2022/10/11 12:00:14;;;;;;;2.83;1.60;;;;;;;18.51;61.55;97265.69;10556610;28;20478;-30
2022/10/11 12:05:20;;;;;;;1.88;1.55;;;;;;;18.53;61.68;97266.53;10535233;28;20019;-31
2022/10/11 12:10:36;;;;;;;2.83;1.90;;;;;;;18.52;61.50;97272.47;10557394;28;20028;-31
2022/10/11 12:15:37;;;;;;;9.50;2.88;;;;;;;18.58;64.21;97269.97;10536217;28;20015;-31
2022/10/11 12:20:40;;;;;;;8.85;4.07;;;;;;;18.64;65.25;97265.78;10558260;28;20040;-31
2022/10/11 12:25:42;;;;;;;6.65;3.25;;;;;;;18.63;65.10;97260.69;10564714;28;20024;-30
2022/10/11 12:30:43;;;;;;;5.65;2.00;;;;;;;18.59;62.17;97266.59;10517137;28;20103;-31
2022/10/11 12:35:52;;;;;;;2.40;1.55;;;;;;;18.56;61.63;97254.75;10521277;28;20374;-32
2022/10/11 12:41:17;;;;;;;4.57;1.50;;;;;;;18.55;61.51;97259.78;10523166;28;20445;-30
2022/10/11 12:46:30;;;;;;;4.85;2.28;;;;;;;18.52;61.66;97254.72;10513544;28;20034;-31
2022/10/11 12:51:34;;;;;;;5.50;2.17;;;;;;;18.53;61.60;97247.13;10564723;28;20035;-31
2022/10/11 12:56:57;;;;;;;4.55;2.40;;;;;;;18.53;61.61;97251.31;10565303;28;20050;-31
2022/10/11 13:01:58;;;;;;;6.50;2.40;;;;;;;18.55;61.99;97244.56;10568597;28;20478;-31
2022/10/11 13:07:03;;;;;;;3.72;1.60;;;;;;;18.54;61.52;97255.56;10563216;28;20032;-31
2022/10/11 13:12:06;;;;;;;3.05;1.90;;;;;;;18.53;61.37;97253.88;10566352;28;21476;-30
2022/10/11 13:17:15;;;;;;;8.20;2.38;;;;;;;18.59;62.54;97254.75;10551903;27;20063;-30
2022/10/11 13:22:20;;;;;;;13.75;3.40;;;;;;;18.68;65.41;97247.22;10553931;28;20035;-31
2022/10/11 13:27:24;;;;;;;13.68;3.83;;;;;;;18.73;65.94;97244.72;10548940;28;20155;-32
2022/10/11 13:32:28;;;;;;;12.90;3.15;;;;;;;18.67;65.66;97250.59;10533449;28;20028;-32
2022/10/11 13:37:35;;;;;;;17.00;5.07;;;;;;;18.62;64.11;97251.41;10564351;28;20525;-30
2022/10/11 13:42:36;;;;;;;13.95;7.15;;;;;;;18.46;65.20;97245.38;10528181;28;20050;-30
2022/10/11 13:47:37;;;;;;;7.57;4.18;;;;;;;18.41;63.93;97236.03;10530774;28;20093;-30
2022/10/11 13:52:51;;;;;;;4.40;2.53;;;;;;;18.52;62.27;97239.50;10563600;28;20032;-30
2022/10/11 13:57:52;;;;;;;7.07;2.17;;;;;;;18.52;62.21;97249.63;10553935;28;20409;-32
2022/10/11 14:02:58;;;;;;;5.70;2.85;;;;;;;18.53;62.18;97241.19;10560724;28;20028;-31
2022/10/11 14:08:02;;;;;;;7.17;2.70;;;;;;;18.53;62.02;97252.19;10561156;28;20096;-30
2022/10/11 14:13:22;;;;;;;5.70;2.50;;;;;;;18.54;62.03;97255.56;10561038;28;20497;-31
2022/10/11 14:18:35;;;;;;;4.20;2.75;;;;;;;18.54;62.04;97247.94;10564411;28;20028;-30
2022/10/11 14:23:35;;;;;;;8.77;4.50;;;;;;;18.49;64.46;97239.47;10561411;28;20031;-30
2022/10/11 14:28:36;;;;;;;7.53;4.37;;;;;;;18.61;65.60;97257.31;10569510;28;20024;-31
2022/10/11 14:33:36;;;;;;;7.83;3.73;;;;;;;18.63;65.67;97253.97;10562959;28;20111;-30
2022/10/11 14:38:37;;;;;;;5.93;3.80;;;;;;;18.62;65.05;97251.41;10567155;28;20322;-31
2022/10/11 14:43:37;;;;;;;5.65;2.88;;;;;;;18.55;62.90;97249.66;10564105;28;20071;-30
2022/10/11 14:48:38;;;;;;;9.63;3.53;;;;;;;18.50;63.10;97251.31;10557536;28;20028;-34
2022/10/11 14:53:44;;;;;;;5.47;3.27;;;;;;;18.53;62.54;97253.88;10560423;28;20032;-31
2022/10/11 14:58:45;;;;;;;4.68;2.70;;;;;;;18.53;62.37;97251.31;10565579;28;20027;-31
2022/10/11 15:03:45;;;;;;;3.42;2.78;;;;;;;18.52;62.28;97244.56;10552253;28;20043;-31
2022/10/11 15:08:47;;;;;;;5.43;2.92;;;;;;;18.53;62.15;97241.19;10569931;28;20030;-32
2022/10/11 15:13:47;;;;;;;6.47;3.03;;;;;;;18.52;62.55;97247.09;10532911;28;20026;-32
2022/10/11 15:18:51;;;;;;;3.97;2.90;;;;;;;18.51;62.20;97238.63;10537235;28;20030;-31
2022/10/11 15:23:53;;;;;;;3.90;2.58;;;;;;;18.52;62.19;97234.41;10560722;28;20036;-32
2022/10/11 15:28:55;;;;;;;10.10;3.25;;;;;;;18.57;64.09;97241.22;10550569;28;20032;-31
2022/10/11 15:33:58;;;;;;;7.75;3.30;;;;;;;18.61;64.97;97234.50;10560438;28;20053;-31
2022/10/11 15:39:00;;;;;;;5.43;3.33;;;;;;;18.63;65.15;97225.19;10558148;28;20042;-31
2022/10/11 15:44:00;;;;;;;9.77;3.55;;;;;;;18.61;64.94;97232.81;10555182;28;20104;-32
2022/10/11 15:49:01;;;;;;;8.70;3.10;;;;;;;18.54;63.86;97214.97;10558796;28;20378;-32
2022/10/11 15:54:01;;;;;;;8.00;3.30;;;;;;;18.52;63.09;97211.59;10553486;28;20060;-31
2022/10/11 15:59:02;;;;;;;14.45;3.67;;;;;;;18.50;63.21;97215.81;10566574;28;20640;-31
2022/10/11 16:04:02;;;;;;;17.60;3.55;;;;;;;18.53;62.40;97215.81;10551287;28;20083;-30
2022/10/11 16:09:03;;;;;;;12.00;3.67;;;;;;;18.53;62.43;97215.81;10558957;28;20036;-31
2022/10/11 16:14:03;;;;;;;5.43;2.55;;;;;;;18.52;62.23;97209.06;10568024;28;20313;-30
2022/10/11 16:19:03;;;;;;;6.90;2.77;;;;;;;18.52;62.25;97209.06;10565062;28;20092;-29
2022/10/11 16:24:04;;;;;;;11.37;4.17;;;;;;;18.35;63.77;97206.38;10548471;28;20652;-30
2022/10/11 16:29:04;;;;;;;8.85;3.60;;;;;;;18.42;63.14;97207.31;10571072;28;20454;-31
2022/10/11 16:34:04;;;;;;;13.00;4.50;;;;;;;18.49;64.72;97214.13;10565424;28;20038;-31
2022/10/11 16:39:13;;;;;;;12.53;4.43;;;;;;;18.58;65.50;97219.25;10572259;28;20499;-31
2022/10/11 16:44:20;;;;;;;9.27;3.45;;;;;;;18.60;65.52;97212.50;10567954;28;20032;-30
2022/10/11 16:49:25;;;;;;;11.13;3.97;;;;;;;18.58;64.84;97215.03;10567144;28;20101;-31
2022/10/11 16:54:31;;;;;;;11.55;3.78;;;;;;;18.56;63.90;97220.91;10569264;28;20578;-31
2022/10/11 16:59:32;;;;;;;5.57;3.33;;;;;;;18.54;62.54;97222.59;10567237;28;20035;-30
2022/10/11 17:04:33;;;;;;;5.83;3.07;;;;;;;18.53;62.41;97223.44;10566557;28;20023;-32
2022/10/11 17:09:33;;;;;;;13.88;5.07;;;;;;;18.54;63.75;97225.13;10566390;28;20036;-31
2022/10/11 17:14:34;;;;;;;14.10;3.70;;;;;;;18.51;62.33;97227.66;10567350;28;20019;-31
2022/10/11 17:19:36;;;;;;;12.70;4.15;;;;;;;18.51;62.12;97230.19;10567452;28;20556;-31
2022/10/11 17:24:37;;;;;;;9.45;2.63;;;;;;;18.52;62.87;97234.41;10564874;28;20523;-32
2022/10/11 17:29:37;;;;;;;16.38;5.78;;;;;;;18.57;64.80;97227.72;10561017;28;20035;-31
2022/10/11 17:34:37;;;;;;;8.15;2.90;;;;;;;18.53;62.33;97231.91;10565063;28;20072;-31
2022/10/11 17:39:38;;;;;;;16.83;5.10;;;;;;;18.60;66.77;97242.94;10568956;28;20220;-31
2022/10/11 17:44:38;;;;;;;27.15;5.93;;;;;;;18.65;66.53;97236.19;10565309;28;20035;-31
2022/10/11 17:49:39;;;;;;;21.53;4.00;;;;;;;18.63;65.60;97236.19;10565707;28;20036;-30
2022/10/11 17:54:39;;;;;;;9.23;3.23;;;;;;;18.62;64.96;97233.66;10567109;28;20266;-31
2022/10/11 17:59:39;;;;;;;12.23;3.37;;;;;;;18.59;64.59;97231.94;10570589;28;20195;-31
2022/10/11 18:04:40;;;;;;;13.03;3.97;;;;;;;18.58;63.87;97245.44;10563731;28;20084;-31
2022/10/11 18:09:41;;;;;;;14.40;3.90;;;;;;;18.56;62.98;97238.66;10563601;28;20330;-30
2022/10/11 18:14:41;;;;;;;8.98;2.95;;;;;;;18.48;62.99;97232.69;10566940;28;20106;-30
2022/10/11 18:19:42;;;;;;;9.55;3.05;;;;;;;18.53;62.63;97231.03;10560440;28;20489;-31
2022/10/11 18:24:42;;;;;;;7.27;2.80;;;;;;;18.53;62.59;97231.91;10561024;28;20400;-31
2022/10/11 18:29:42;;;;;;;9.20;2.45;;;;;;;18.50;62.68;97225.97;10561861;28;20410;-31
2022/10/11 18:34:43;;;;;;;12.87;2.43;;;;;;;18.44;62.78;97225.91;10560031;28;20038;-32
2022/10/11 18:39:43;;;;;;;31.98;4.57;;;;;;;18.54;63.14;97225.13;10548447;28;20044;-30
2022/10/11 18:44:44;;;;;;;14.30;3.60;;;;;;;18.58;65.78;97221.78;10560033;28;20039;-32
2022/10/11 18:49:44;;;;;;;10.50;4.18;;;;;;;18.64;65.89;97226.88;10566727;28;20100;-31
2022/10/11 18:54:44;;;;;;;11.17;3.10;;;;;;;18.67;65.59;97224.41;10558869;28;20028;-31
2022/10/11 18:59:45;;;;;;;8.23;4.33;;;;;;;18.64;64.99;97220.16;10559391;28;20059;-31
2022/10/11 19:04:51;;;;;;;8.32;3.10;;;;;;;18.56;63.78;97221.78;10553644;28;20045;-31
2022/10/11 19:09:51;;;;;;;12.03;3.50;;;;;;;18.65;65.32;97226.91;10555302;28;20031;-30
2022/10/11 19:14:53;;;;;;;8.02;2.85;;;;;;;18.60;63.10;97225.19;10562547;28;20030;-30
2022/10/11 19:19:53;;;;;;;10.25;3.25;;;;;;;18.57;62.69;97220.94;10556410;28;20036;-30
2022/10/11 19:24:54;;;;;;;11.43;3.65;;;;;;;18.56;62.60;97215.84;10560254;28;20043;-30
2022/10/11 19:29:54;;;;;;;6.20;2.00;;;;;;;18.54;62.49;97223.47;10548393;28;20036;-30
2022/10/11 19:34:56;;;;;;;4.65;1.95;;;;;;;18.57;62.51;97227.72;10557411;28;20040;-31
2022/10/11 19:39:56;;;;;;;7.13;2.63;;;;;;;18.56;62.32;97223.44;10551587;28;20032;-30
2022/10/11 19:44:57;;;;;;;3.97;2.40;;;;;;;18.55;62.25;97217.53;10561524;28;20042;-30
2022/10/11 19:49:57;;;;;;;12.10;3.73;;;;;;;18.55;66.02;97219.22;10552939;28;20035;-28
2022/10/11 19:54:58;;;;;;;5.43;2.90;;;;;;;18.64;66.20;97229.44;10557749;28;20028;-30
2022/10/11 19:59:58;;;;;;;7.57;3.07;;;;;;;18.63;65.92;97232.81;10561726;28;20027;-30
2022/10/11 20:04:58;;;;;;;8.60;2.70;;;;;;;18.60;64.79;97230.25;10554120;28;20641;-31
2022/10/11 20:09:59;;;;;;;5.77;2.70;;;;;;;18.59;64.61;97226.03;10563236;28;20354;-31
2022/10/11 20:14:59;;;;;;;5.90;3.57;;;;;;;18.58;64.43;97237.00;10560770;28;20039;-30
2022/10/11 20:19:59;;;;;;;6.10;3.30;;;;;;;18.52;63.79;97236.94;10559965;28;20287;-30
2022/10/11 20:25:00;;;;;;;5.60;2.90;;;;;;;18.56;62.95;97243.72;10557837;28;20541;-29
2022/10/11 20:30:00;;;;;;;4.53;2.53;;;;;;;18.51;63.09;97246.22;10551651;28;20044;-30
2022/10/11 20:35:01;;;;;;;8.00;2.40;;;;;;;18.54;62.94;97243.75;10561593;28;20046;-31
2022/10/11 20:40:04;;;;;;;4.60;2.33;;;;;;;18.55;63.26;97249.66;10557327;28;20044;-30
2022/10/11 20:45:05;;;;;;;3.92;2.20;;;;;;;18.54;62.58;97253.03;10559798;28;20328;-30
2022/10/11 20:50:06;;;;;;;6.55;2.97;;;;;;;18.54;62.67;97247.94;10557300;28;20070;-31
2022/10/11 20:55:07;;;;;;;4.03;3.17;;;;;;;18.57;65.54;97242.94;10559008;28;20492;-32
2022/10/11 21:00:08;;;;;;;9.38;3.08;;;;;;;18.59;65.97;97248.84;10562122;28;20031;-31
2022/10/11 21:05:08;;;;;;;6.50;2.72;;;;;;;18.59;65.68;97252.22;10551259;28;20401;-31
2022/10/11 21:10:09;;;;;;;4.10;2.38;;;;;;;18.59;64.42;97243.78;10556657;28;20045;-30
2022/10/11 21:15:09;;;;;;;3.20;2.20;;;;;;;18.57;64.37;97238.69;10566798;28;20031;-32
2022/10/11 21:20:10;;;;;;;3.80;2.33;;;;;;;18.56;63.60;97246.28;10568841;28;20794;-31
2022/10/11 21:25:10;;;;;;;4.97;2.60;;;;;;;18.50;63.57;97233.56;10569142;28;20049;-31
2022/10/11 21:30:10;;;;;;;5.80;2.40;;;;;;;18.55;63.07;97247.09;10563415;28;20023;-30
2022/10/11 21:35:11;;;;;;;6.83;2.37;;;;;;;18.48;62.85;97233.53;10569136;28;20034;-31
2022/10/11 21:40:11;;;;;;;4.17;2.40;;;;;;;18.52;63.06;97244.56;10565492;28;20308;-30
2022/10/11 21:45:12;;;;;;;3.53;2.10;;;;;;;18.48;62.68;97242.81;10564094;28;20098;-30
2022/10/11 21:50:12;;;;;;;5.78;2.45;;;;;;;18.54;63.50;97250.50;10563198;28;20024;-31
2022/10/11 21:55:13;;;;;;;3.40;2.70;;;;;;;18.53;62.56;97249.66;10565408;28;20043;-31
2022/10/11 22:00:13;;;;;;;6.22;2.80;;;;;;;18.56;65.24;97243.72;10570619;28;20062;-31
2022/10/11 22:05:14;;;;;;;5.10;2.80;;;;;;;18.59;65.50;97242.06;10567474;28;20063;-30
2022/10/11 22:10:14;;;;;;;4.38;2.75;;;;;;;18.60;65.22;97248.00;10562295;28;20274;-31
2022/10/11 22:15:15;;;;;;;4.00;2.42;;;;;;;18.56;63.98;97247.13;10566619;28;20058;-31
2022/10/11 22:20:15;;;;;;;2.83;2.20;;;;;;;18.56;64.01;97246.28;10566924;28;20039;-31
2022/10/11 22:25:15;;;;;;;4.53;2.53;;;;;;;18.55;63.99;97244.56;10566254;28;20156;-30
2022/10/11 22:30:16;;;;;;;3.37;2.40;;;;;;;18.55;63.90;97242.03;10562975;28;20031;-30
2022/10/11 22:35:17;;;;;;;2.85;2.30;;;;;;;18.46;63.62;97230.16;10564106;28;20751;-31
2022/10/11 22:40:18;;;;;;;2.80;1.90;;;;;;;18.51;63.66;97248.78;10564643;28;20032;-32
2022/10/11 22:45:19;;;;;;;3.53;2.33;;;;;;;18.47;63.45;97236.91;10543079;28;20270;-30
2022/10/11 22:50:19;;;;;;;4.93;2.20;;;;;;;18.53;63.24;97238.66;10566143;28;20024;-30
2022/10/11 22:55:19;;;;;;;2.50;2.20;;;;;;;18.50;62.90;97243.72;10564140;28;20106;-30
2022/10/11 23:00:20;;;;;;;2.37;2.13;;;;;;;18.49;62.69;97239.47;10564674;28;20334;-31
2022/10/11 23:05:20;;;;;;;5.05;2.58;;;;;;;18.55;65.15;97239.50;10560177;28;20031;-31
2022/10/11 23:10:21;;;;;;;5.43;2.65;;;;;;;18.60;65.51;97248.00;10559108;28;20434;-31
2022/10/11 23:15:21;;;;;;;5.00;2.40;;;;;;;18.59;65.46;97246.31;10560561;28;20024;-32
2022/10/11 23:20:22;;;;;;;3.30;2.03;;;;;;;18.56;63.94;97236.13;10559973;28;20035;-31
2022/10/11 23:25:22;;;;;;;2.53;2.15;;;;;;;18.55;64.22;97239.50;10562130;28;20300;-31
2022/10/11 23:30:22;;;;;;;3.27;2.17;;;;;;;18.54;64.09;97235.28;10552975;28;20058;-30